Time;durP1;ratioP1;P1;durP2;ratioP2;P2;SDS_P1;SDS_P2;PMS_P1;PMS_P2;Temp;Humidity;BMP_temperature;BMP_pressure;BME280_temperature;BME280_humidity;BME280_pressure;Samples;Min_cycle;Max_cycle;Signal;HPM_P1;HPM_P2
2023/12/08 00:01:55;;;;;;;9.80;7.47;;;4.80;99.90;;;4.48;68.68;95027.47;5059594;28;20518;-60
2023/12/08 00:04:22;;;;;;;8.07;7.23;;;4.70;99.90;;;4.49;68.63;95026.50;5061405;28;20864;-63
2023/12/08 00:06:50;;;;;;;10.73;7.33;;;4.70;99.90;;;4.48;68.74;95033.50;5061152;28;20470;-62
2023/12/08 00:09:17;;;;;;;9.33;6.80;;;4.70;99.90;;;4.49;68.60;95032.56;5059146;28;20529;-60
2023/12/08 00:11:44;;;;;;;9.20;7.23;;;4.70;99.90;;;4.48;68.86;95028.28;5061551;28;20485;-59
2023/12/08 00:14:11;;;;;;;11.90;6.90;;;4.70;99.90;;;4.49;69.11;95032.56;5061020;28;20462;-62
2023/12/08 00:16:39;;;;;;;8.27;6.90;;;4.70;99.90;;;4.48;68.94;95033.50;5059617;28;20947;-62
2023/12/08 00:19:07;;;;;;;8.20;6.53;;;4.70;99.90;;;4.50;68.54;95036.00;5061597;28;20490;-62
2023/12/08 00:21:35;;;;;;;6.70;6.10;;;4.70;99.90;;;4.50;68.63;95033.41;5060806;28;20454;-61
2023/12/08 00:24:02;;;;;;;8.40;6.33;;;4.70;99.90;;;4.52;68.87;95028.91;5059216;28;20456;-61
2023/12/08 00:26:29;;;;;;;8.60;6.67;;;4.70;99.90;;;4.50;68.69;95030.81;5060766;28;20451;-62
2023/12/08 00:28:57;;;;;;;7.23;6.33;;;4.70;99.90;;;4.51;68.88;95027.28;5060729;28;20505;-62
2023/12/08 00:31:24;;;;;;;7.10;6.47;;;4.70;99.90;;;4.51;68.98;95032.47;5058881;28;20448;-59
2023/12/08 00:33:52;;;;;;;7.50;6.43;;;4.80;99.90;;;4.52;68.51;95028.09;5061041;28;20491;-57
2023/12/08 00:36:21;;;;;;;7.33;6.53;;;4.70;99.90;;;4.52;68.69;95033.31;5060649;28;20534;-58
2023/12/08 00:38:48;;;;;;;8.93;6.53;;;4.70;99.90;;;4.52;68.48;95028.09;5058503;28;20578;-62
2023/12/08 00:41:15;;;;;;;8.27;5.90;;;4.80;99.90;;;4.53;68.73;95032.38;5060558;28;20443;-62
2023/12/08 00:43:43;;;;;;;6.50;6.00;;;4.80;99.90;;;4.53;68.61;95024.56;5060693;28;20923;-60
2023/12/08 00:46:10;;;;;;;9.67;6.97;;;4.80;99.90;;;4.55;68.53;95033.09;5058641;28;21026;-58
2023/12/08 00:48:37;;;;;;;7.70;6.07;;;4.80;99.90;;;4.54;68.74;95027.06;5060364;28;20622;-59
2023/12/08 00:51:06;;;;;;;8.00;5.77;;;4.80;99.90;;;4.53;68.55;95020.19;5061132;28;20451;-58
2023/12/08 00:53:35;;;;;;;8.57;5.83;;;4.80;99.90;;;4.53;68.67;95025.38;5058755;28;20542;-62
2023/12/08 00:56:02;;;;;;;5.67;5.07;;;4.80;99.90;;;4.53;68.03;95022.78;5059964;28;20447;-62
2023/12/08 00:58:29;;;;;;;6.70;4.70;;;4.80;99.90;;;4.52;68.33;95023.72;5060592;28;20805;-63
2023/12/08 01:00:57;;;;;;;4.37;4.00;;;4.80;99.90;;;4.51;67.79;95029.88;5058214;28;20573;-63
2023/12/08 01:03:24;;;;;;;4.27;3.97;;;4.80;99.90;;;4.52;67.87;95030.69;5060177;28;20843;-59
2023/12/08 01:05:52;;;;;;;5.90;4.80;;;4.80;99.90;;;4.46;67.61;95030.16;5061194;28;20834;-59
2023/12/08 01:08:19;;;;;;;7.83;5.10;;;4.70;99.90;;;4.44;67.54;95032.00;5057902;28;20586;-63
2023/12/08 01:10:47;;;;;;;6.10;5.40;;;4.70;99.90;;;4.42;67.52;95030.47;5059397;28;20516;-63
2023/12/08 01:13:15;;;;;;;6.73;5.17;;;4.70;99.90;;;4.39;67.62;95028.88;5061124;28;20895;-62
2023/12/08 01:15:42;;;;;;;5.00;4.57;;;4.70;99.90;;;4.39;67.66;95033.25;5057984;28;20952;-60
2023/12/08 01:18:09;;;;;;;7.77;5.27;;;4.60;99.90;;;4.37;67.40;95037.72;5059493;28;20888;-61
2023/12/08 01:20:37;;;;;;;6.63;5.10;;;4.60;99.90;;;4.38;67.73;95037.63;5061710;28;20487;-62
2023/12/08 01:23:04;;;;;;;6.93;5.10;;;4.60;99.90;;;4.41;67.83;95031.38;5058958;28;20471;-63
2023/12/08 01:25:31;;;;;;;5.53;5.00;;;4.60;99.90;;;4.42;67.68;95033.06;5059530;28;20447;-60
2023/12/08 01:28:00;;;;;;;5.90;5.10;;;4.70;99.90;;;4.45;67.65;95035.47;5060227;28;21123;-62
2023/12/08 01:30:27;;;;;;;5.80;5.20;;;4.70;99.90;;;4.46;67.76;95026.72;5060721;28;20966;-60
2023/12/08 01:32:55;;;;;;;6.90;6.20;;;4.70;99.90;;;4.47;67.88;95033.59;5059150;28;21000;-60
2023/12/08 01:35:22;;;;;;;6.60;5.90;;;4.70;99.90;;;4.45;67.67;95025.88;5057955;28;20618;-59
2023/12/08 01:37:50;;;;;;;6.63;5.97;;;4.70;99.90;;;4.46;67.90;95030.16;5057650;28;20525;-59
2023/12/08 01:40:17;;;;;;;6.43;5.83;;;4.70;99.90;;;4.45;68.12;95023.28;5059299;28;20561;-61
2023/12/08 01:42:47;;;;;;;7.57;6.47;;;4.70;99.90;;;4.45;67.88;95027.66;5060504;28;20485;-63
2023/12/08 01:45:16;;;;;;;7.30;5.90;;;4.70;99.90;;;4.43;67.84;95025.16;5054556;28;20826;-59
2023/12/08 01:47:43;;;;;;;7.20;6.13;;;4.70;99.90;;;4.42;67.62;95020.06;5058784;28;20529;-60
2023/12/08 01:50:10;;;;;;;9.93;6.43;;;4.70;99.90;;;4.43;67.77;95026.91;5060783;28;20811;-60
2023/12/08 01:52:38;;;;;;;10.43;6.30;;;4.70;99.90;;;4.42;67.54;95028.69;5058016;28;20489;-62
2023/12/08 01:55:06;;;;;;;8.13;6.90;;;4.70;99.90;;;4.42;67.50;95020.88;5058495;28;20455;-60
2023/12/08 01:57:33;;;;;;;7.20;6.13;;;4.70;99.90;;;4.44;67.56;95020.78;5060354;28;20534;-60
2023/12/08 02:00:01;;;;;;;6.70;5.83;;;4.70;99.90;;;4.45;67.76;95019.84;5058192;28;20499;-61
2023/12/08 02:02:29;;;;;;;6.17;5.10;;;4.70;99.90;;;4.44;67.41;95024.22;5058456;28;20475;-60
2023/12/08 02:04:58;;;;;;;8.23;5.97;;;4.70;99.90;;;4.46;66.94;95027.56;5060643;28;20475;-59
2023/12/08 02:07:26;;;;;;;8.00;6.50;;;4.70;99.90;;;4.45;67.28;95027.66;5058635;28;20545;-62
2023/12/08 02:09:54;;;;;;;6.90;6.03;;;4.70;99.90;;;4.46;67.42;95030.16;5057887;28;20444;-62
2023/12/08 02:12:21;;;;;;;6.70;5.23;;;4.70;99.90;;;4.47;66.89;95028.38;5060005;28;20475;-62
2023/12/08 02:14:51;;;;;;;5.67;5.07;;;4.70;99.90;;;4.48;67.42;95032.69;5058699;28;20470;-59
2023/12/08 02:17:21;;;;;;;9.43;6.63;;;4.70;99.90;;;4.49;67.21;95036.94;5057517;28;21186;-61
2023/12/08 02:19:50;;;;;;;8.70;6.30;;;4.70;99.90;;;4.49;67.20;95039.53;5054757;28;20503;-59
2023/12/08 02:22:18;;;;;;;6.50;5.50;;;4.80;99.90;;;4.49;66.99;95044.75;5062275;28;20475;-61
2023/12/08 02:24:47;;;;;;;5.77;5.10;;;4.70;99.90;;;4.47;66.92;95039.63;5064181;28;20510;-62
2023/12/08 02:27:14;;;;;;;6.27;5.67;;;4.70;99.90;;;4.46;66.65;95040.59;5062143;28;20474;-63
2023/12/08 02:29:42;;;;;;;5.50;5.00;;;4.70;99.90;;;4.46;66.91;95037.13;5061752;28;20452;-59
2023/12/08 02:32:15;;;;;;;5.83;5.33;;;4.70;99.90;;;4.47;67.08;95046.63;5063765;28;20474;-60
2023/12/08 02:34:43;;;;;;;7.20;6.07;;;4.70;99.90;;;4.48;66.86;95043.09;5062808;28;20447;-58
2023/12/08 02:37:10;;;;;;;5.43;4.93;;;4.70;99.90;;;4.48;67.01;95043.09;5061208;28;20487;-61
2023/12/08 02:39:37;;;;;;;6.37;5.60;;;4.70;99.90;;;4.49;67.34;95040.38;5063213;28;20593;-61
2023/12/08 02:42:06;;;;;;;11.90;6.10;;;4.70;99.90;;;4.49;66.57;95045.59;5063198;28;20589;-62
2023/12/08 02:44:34;;;;;;;7.40;5.50;;;4.80;99.90;;;4.50;66.63;95046.44;5061397;28;20451;-62
2023/12/08 02:47:01;;;;;;;6.40;5.60;;;4.80;99.90;;;4.50;66.93;95041.22;5063383;28;20459;-62
2023/12/08 02:49:28;;;;;;;6.67;5.73;;;4.80;99.90;;;4.51;66.88;95044.66;5063120;28;20458;-62
2023/12/08 02:51:55;;;;;;;6.70;5.60;;;4.70;99.90;;;4.51;66.55;95052.47;5061038;28;20479;-61
2023/12/08 02:54:23;;;;;;;7.27;6.40;;;4.70;99.90;;;4.51;66.76;95050.72;5063084;28;20455;-62
2023/12/08 02:56:50;;;;;;;9.23;6.10;;;4.80;99.90;;;4.50;66.38;95049.03;5062196;28;21124;-60
2023/12/08 02:59:19;;;;;;;14.10;9.10;;;4.80;99.90;;;4.50;66.56;95054.25;5060236;28;20499;-62
2023/12/08 03:01:46;;;;;;;8.77;6.60;;;4.70;99.90;;;4.49;66.26;95047.34;5062610;28;20462;-60
2023/12/08 03:04:14;;;;;;;8.27;5.80;;;4.80;99.90;;;4.49;66.92;95052.56;5062756;28;20451;-62
2023/12/08 03:06:41;;;;;;;5.80;5.20;;;4.80;99.90;;;4.50;66.71;95056.84;5060124;28;20467;-62
2023/12/08 03:09:09;;;;;;;6.70;5.80;;;4.80;99.90;;;4.51;66.49;95057.66;5061724;28;20451;-59
2023/12/08 03:11:36;;;;;;;10.30;6.30;;;4.70;99.90;;;4.49;66.88;95048.22;5061281;28;20550;-60
2023/12/08 03:14:04;;;;;;;7.60;5.30;;;4.80;99.90;;;4.50;66.54;95046.44;5063363;28;20966;-59
2023/12/08 03:16:32;;;;;;;6.87;6.17;;;4.80;99.90;;;4.51;66.56;95052.47;5061052;28;20444;-60
2023/12/08 03:19:00;;;;;;;8.47;6.47;;;4.70;99.90;;;4.50;66.72;95049.03;5064193;28;20443;-62
2023/12/08 03:21:28;;;;;;;5.80;5.30;;;4.80;99.90;;;4.51;66.69;95047.25;5059920;28;20524;-63
2023/12/08 03:23:55;;;;;;;5.97;5.37;;;4.80;99.90;;;4.51;66.21;95040.28;5061982;28;20975;-63
2023/12/08 03:26:22;;;;;;;7.50;6.00;;;4.80;99.90;;;4.51;66.65;95031.63;5062343;28;20974;-60
2023/12/08 03:28:49;;;;;;;7.20;6.30;;;4.80;99.90;;;4.52;66.41;95044.53;5059929;28;20980;-63
2023/12/08 03:31:24;;;;;;;6.03;5.20;;;4.80;99.90;;;4.53;66.56;95045.41;5062083;28;20855;-60
2023/12/08 03:33:53;;;;;;;6.17;5.57;;;4.80;99.90;;;4.52;66.66;95041.13;5062517;28;20446;-60
2023/12/08 03:36:20;;;;;;;7.50;6.17;;;4.80;99.90;;;4.52;66.72;95041.94;5060616;28;20533;-60
2023/12/08 03:38:47;;;;;;;6.03;5.43;;;4.80;99.90;;;4.52;66.35;95048.94;5060904;28;20447;-60
2023/12/08 03:41:15;;;;;;;5.83;5.30;;;4.80;99.90;;;4.50;66.33;95041.22;5063337;28;20994;-59
2023/12/08 03:43:42;;;;;;;6.00;5.40;;;4.80;99.90;;;4.51;66.44;95042.03;5061010;28;20459;-62
2023/12/08 03:46:09;;;;;;;9.80;7.00;;;4.70;99.90;;;4.51;66.35;95039.44;5060525;28;20456;-61
2023/12/08 03:48:37;;;;;;;7.30;5.27;;;4.80;99.90;;;4.48;66.19;95037.88;5062832;28;20474;-62
2023/12/08 03:51:06;;;;;;;5.77;5.17;;;4.70;99.90;;;4.47;66.50;95036.22;5060421;28;21003;-62
2023/12/08 03:53:33;;;;;;;5.17;4.60;;;4.70;99.90;;;4.47;66.37;95036.22;5060285;28;20567;-62
2023/12/08 03:56:01;;;;;;;6.47;5.67;;;4.70;99.90;;;4.48;66.79;95040.50;5062613;28;20517;-60
2023/12/08 03:58:29;;;;;;;5.73;5.00;;;4.70;99.90;;;4.47;66.16;95031.81;5060867;28;20472;-61
2023/12/08 04:00:56;;;;;;;5.07;4.67;;;4.70;99.90;;;4.47;66.21;95028.38;5060444;28;20887;-62
2023/12/08 04:03:23;;;;;;;7.47;5.90;;;4.70;99.90;;;4.47;66.56;95023.19;5062796;28;20477;-62
2023/12/08 04:05:51;;;;;;;5.33;4.47;;;4.70;99.90;;;4.45;66.26;95020.69;5060999;28;21048;-61
2023/12/08 04:08:20;;;;;;;5.80;5.23;;;4.70;99.90;;;4.45;66.48;95022.47;5060015;28;20472;-60
2023/12/08 04:10:48;;;;;;;5.37;4.87;;;4.70;99.90;;;4.44;66.38;95018.16;5062549;28;20454;-62
2023/12/08 04:13:15;;;;;;;8.23;5.80;;;4.70;99.90;;;4.45;66.52;95015.47;5061072;28;20472;-59
2023/12/08 04:15:42;;;;;;;6.00;4.90;;;4.70;99.90;;;4.45;66.54;95019.84;5060002;28;20447;-61
2023/12/08 04:18:10;;;;;;;7.57;5.47;;;4.70;99.90;;;4.45;66.54;95012.88;5062421;28;20475;-62
2023/12/08 04:20:37;;;;;;;6.53;5.80;;;4.70;99.90;;;4.46;66.72;95005.88;5057026;28;20853;-60
2023/12/08 04:23:06;;;;;;;7.50;5.57;;;4.70;99.90;;;4.47;66.46;95010.16;5057867;28;20479;-64
2023/12/08 04:25:34;;;;;;;6.90;5.47;;;4.70;99.90;;;4.45;66.61;95007.66;5062215;28;20516;-60
2023/12/08 04:28:02;;;;;;;6.70;5.97;;;4.70;99.90;;;4.45;66.48;95007.66;5060942;28;20471;-62
2023/12/08 04:30:29;;;;;;;11.30;7.10;;;4.70;99.90;;;4.44;66.65;94999.94;5059227;28;20529;-62
2023/12/08 04:32:57;;;;;;;7.00;5.83;;;4.70;99.90;;;4.45;66.36;95001.63;5056143;28;20818;-62
2023/12/08 04:35:24;;;;;;;8.87;6.73;;;4.70;99.90;;;4.44;66.36;95005.16;5060273;28;20454;-60
2023/12/08 04:37:51;;;;;;;6.90;5.57;;;4.70;99.90;;;4.44;66.60;95005.16;5062000;28;20470;-62
2023/12/08 04:40:19;;;;;;;9.07;6.90;;;4.70;99.90;;;4.44;66.82;95000.75;5056208;28;20931;-62
2023/12/08 04:42:49;;;;;;;9.00;7.93;;;4.70;99.90;;;4.44;66.69;95010.34;5061198;28;20468;-61
2023/12/08 04:45:16;;;;;;;10.37;7.57;;;4.70;99.90;;;4.44;66.50;95019.00;5059679;28;20905;-62
2023/12/08 04:47:44;;;;;;;7.33;6.17;;;4.70;99.90;;;4.43;66.73;95024.31;5061160;28;20479;-60
2023/12/08 04:50:11;;;;;;;10.23;7.40;;;4.70;99.90;;;4.41;66.52;95020.97;5060675;28;20463;-63
2023/12/08 04:52:38;;;;;;;9.53;6.57;;;4.70;99.90;;;4.40;66.80;95027.09;5059130;28;20534;-62
2023/12/08 04:55:07;;;;;;;13.67;8.60;;;4.70;99.90;;;4.38;66.53;95023.78;5061074;28;20505;-60
2023/12/08 04:57:34;;;;;;;11.40;7.30;;;4.70;99.90;;;4.36;66.78;95021.28;5060500;28;20528;-63
2023/12/08 05:00:04;;;;;;;7.77;6.57;;;4.70;99.90;;;4.35;66.62;95019.59;5058842;28;20567;-62
2023/12/08 05:02:31;;;;;;;7.90;5.57;;;4.60;99.90;;;4.35;66.54;95026.56;5060273;28;20475;-62
2023/12/08 05:04:58;;;;;;;7.30;6.60;;;4.60;99.90;;;4.33;66.61;95039.69;5060642;28;20455;-61
2023/12/08 05:07:26;;;;;;;9.17;6.80;;;4.60;99.90;;;4.34;66.90;95035.31;5059145;28;20491;-60
2023/12/08 05:09:54;;;;;;;7.30;5.80;;;4.60;99.90;;;4.33;66.76;95033.66;5061276;28;20508;-62
2023/12/08 05:12:21;;;;;;;5.60;5.00;;;4.60;99.90;;;4.30;66.80;95032.06;5061178;28;20475;-60
2023/12/08 05:14:48;;;;;;;5.87;5.30;;;4.60;99.90;;;4.28;66.85;95037.38;5061476;28;20505;-61
2023/12/08 05:17:17;;;;;;;5.80;5.20;;;4.60;99.90;;;4.26;66.68;95039.25;5058884;28;20472;-62
2023/12/08 05:19:44;;;;;;;6.40;5.60;;;4.50;99.90;;;4.25;66.86;95041.94;5058748;28;20542;-61
2023/12/08 05:22:11;;;;;;;7.93;5.80;;;4.50;99.90;;;4.24;66.90;95030.69;5058803;28;20472;-61
2023/12/08 05:24:39;;;;;;;6.43;5.50;;;4.50;99.90;;;4.24;67.09;95037.66;5063080;28;20483;-62
2023/12/08 05:27:06;;;;;;;8.40;5.70;;;4.50;99.90;;;4.23;66.71;95043.81;5060791;28;20475;-60
2023/12/08 05:29:34;;;;;;;5.77;5.27;;;4.50;99.90;;;4.23;67.00;95036.84;5057623;28;20593;-60
2023/12/08 05:32:03;;;;;;;5.80;5.00;;;4.50;99.90;;;4.23;67.11;95036.84;5059466;28;20475;-62
2023/12/08 05:34:32;;;;;;;6.40;5.40;;;4.50;99.90;;;4.24;66.97;95046.31;5060643;28;20563;-62
2023/12/08 05:36:59;;;;;;;5.80;5.40;;;4.50;99.90;;;4.25;66.92;95049.75;5053701;28;20556;-62
2023/12/08 05:39:27;;;;;;;15.40;5.67;;;4.50;99.90;;;4.25;66.92;95039.34;5059227;28;20843;-60
2023/12/08 05:41:54;;;;;;;7.33;5.80;;;4.50;99.90;;;4.28;66.83;95049.56;5057989;28;20483;-58
2023/12/08 05:44:21;;;;;;;6.37;5.57;;;4.50;99.90;;;4.29;66.90;95043.41;5061209;28;20457;-62
2023/12/08 05:46:49;;;;;;;6.80;5.50;;;4.60;99.90;;;4.30;67.22;95045.91;5060532;28;20586;-61
2023/12/08 05:49:17;;;;;;;7.57;6.60;;;4.60;99.90;;;4.33;66.89;95057.09;5058729;28;20488;-62
2023/12/08 05:51:46;;;;;;;7.40;6.00;;;4.60;99.90;;;4.33;66.89;95054.50;5058968;28;20928;-61
2023/12/08 05:54:13;;;;;;;7.10;5.77;;;4.60;99.90;;;4.34;66.87;95051.78;5059308;28;20452;-60
2023/12/08 05:56:40;;;;;;;6.33;5.73;;;4.60;99.90;;;4.36;66.66;95051.69;5057510;28;20471;-60
2023/12/08 05:59:07;;;;;;;7.17;6.13;;;4.60;99.90;;;4.35;66.82;95050.84;5060373;28;20537;-59
2023/12/08 06:01:35;;;;;;;7.23;6.37;;;4.60;99.90;;;4.36;66.55;95049.09;5058923;28;20500;-62
2023/12/08 06:04:02;;;;;;;6.80;6.10;;;4.60;99.90;;;4.37;66.70;95058.56;5057730;28;20464;-60
2023/12/08 06:06:31;;;;;;;8.03;6.50;;;4.70;99.90;;;4.37;66.78;95056.81;5060358;28;20447;-62
2023/12/08 06:09:00;;;;;;;12.07;6.60;;;4.60;99.90;;;4.38;66.75;95063.66;5059800;28;20463;-60
2023/12/08 06:11:28;;;;;;;7.97;6.67;;;4.70;99.90;;;4.39;66.33;95064.50;5057476;28;20466;-62
2023/12/08 06:13:55;;;;;;;9.17;7.13;;;4.60;99.90;;;4.40;66.69;95069.63;5059684;28;20535;-60
2023/12/08 06:16:23;;;;;;;8.27;6.73;;;4.70;99.90;;;4.40;66.60;95066.16;5059883;28;20455;-61
2023/12/08 06:18:50;;;;;;;8.50;6.17;;;4.70;99.90;;;4.42;66.77;95066.94;5057924;28;20452;-61
2023/12/08 06:21:18;;;;;;;8.73;6.60;;;4.70;99.90;;;4.43;66.72;95073.78;5059855;28;20491;-62
2023/12/08 06:23:46;;;;;;;14.33;6.50;;;4.70;99.90;;;4.42;66.73;95075.56;5059722;28;20486;-62
2023/12/08 06:26:14;;;;;;;9.67;8.10;;;4.70;99.90;;;4.43;66.68;95076.38;5057719;28;20820;-62
2023/12/08 06:28:42;;;;;;;8.73;7.13;;;4.70;99.90;;;4.42;66.75;95078.16;5059824;28;20835;-60
2023/12/08 06:31:10;;;;;;;8.40;6.07;;;4.70;99.90;;;4.44;66.86;95078.06;5059560;28;20449;-60
2023/12/08 06:33:37;;;;;;;14.63;7.13;;;4.70;99.90;;;4.45;66.78;95082.34;5060075;28;21078;-61
2023/12/08 06:36:05;;;;;;;8.50;6.47;;;4.70;99.90;;;4.45;66.63;95085.78;5058840;28;20448;-60
2023/12/08 06:38:33;;;;;;;7.90;6.50;;;4.70;99.90;;;4.46;66.87;95084.00;5057889;28;20641;-61
2023/12/08 06:41:00;;;;;;;8.60;6.37;;;4.70;99.90;;;4.46;66.58;95084.00;5060140;28;20494;-62
2023/12/08 06:43:29;;;;;;;9.13;7.17;;;4.70;99.90;;;4.47;66.48;95088.28;5059384;28;20829;-60
2023/12/08 06:45:56;;;;;;;7.40;6.30;;;4.70;99.90;;;4.45;66.43;95083.19;5057798;28;20471;-60
2023/12/08 06:48:24;;;;;;;13.77;7.83;;;4.70;99.90;;;4.46;66.24;95087.47;5057292;28;21003;-63
2023/12/08 06:50:52;;;;;;;8.80;6.87;;;4.70;99.90;;;4.45;66.46;95080.56;5058851;28;20451;-61
2023/12/08 06:53:19;;;;;;;13.60;9.53;;;4.70;99.90;;;4.46;66.52;95089.22;5059912;28;20471;-62
2023/12/08 06:55:46;;;;;;;10.67;9.03;;;4.70;99.90;;;4.45;66.35;95090.16;5053854;28;20497;-60
2023/12/08 06:58:14;;;;;;;11.60;8.37;;;4.70;99.90;;;4.45;66.42;95098.81;5059054;28;20471;-62
2023/12/08 07:00:42;;;;;;;12.87;9.23;;;4.70;99.90;;;4.46;66.64;95091.81;5059896;28;20490;-63
2023/12/08 07:03:10;;;;;;;10.90;7.90;;;4.70;99.90;;;4.46;66.55;95091.81;5052431;28;20518;-62
2023/12/08 07:05:37;;;;;;;11.30;8.40;;;4.70;99.90;;;4.45;66.47;95095.38;5058807;28;20512;-60
2023/12/08 07:08:05;;;;;;;9.73;7.67;;;4.70;99.90;;;4.46;66.39;95095.28;5061998;28;20893;-62
2023/12/08 07:10:32;;;;;;;10.33;7.07;;;4.70;99.90;;;4.46;66.43;95092.69;5057041;28;20913;-62
2023/12/08 07:12:59;;;;;;;9.30;7.33;;;4.70;99.90;;;4.47;66.61;95099.53;5062001;28;20466;-62
2023/12/08 07:15:27;;;;;;;10.60;7.60;;;4.70;99.90;;;4.48;66.45;95096.00;5063415;28;20772;-62
2023/12/08 07:17:56;;;;;;;7.00;6.30;;;4.70;99.90;;;4.50;66.56;95093.31;5057284;28;20472;-60
2023/12/08 07:20:23;;;;;;;7.97;7.17;;;4.80;99.90;;;4.51;66.48;95097.59;5061848;28;20482;-62
2023/12/08 07:22:50;;;;;;;7.83;6.13;;;4.70;99.90;;;4.52;66.34;95085.41;5063368;28;20466;-63
2023/12/08 07:25:18;;;;;;;11.77;7.10;;;4.80;99.90;;;4.54;66.40;95091.34;5061070;28;21029;-60
2023/12/08 07:27:45;;;;;;;8.13;6.50;;;4.80;99.90;;;4.55;66.49;95090.41;5061270;28;20479;-61
2023/12/08 07:30:13;;;;;;;17.10;6.60;;;4.80;99.90;;;4.59;67.88;95087.50;5063657;28;20520;-61
2023/12/08 07:32:40;;;;;;;10.10;7.23;;;4.80;99.90;;;4.66;67.57;95083.59;5060006;28;20502;-62
2023/12/08 07:35:09;;;;;;;9.30;6.30;;;4.90;99.90;;;4.71;67.01;95087.66;5061155;28;20985;-62
2023/12/08 07:37:40;;;;;;;7.80;5.67;;;4.90;99.90;;;4.74;66.84;95084.84;5063509;28;20836;-62
2023/12/08 07:40:09;;;;;;;7.93;7.00;;;5.00;99.90;;;4.75;66.81;95100.38;5061377;28;20569;-60
2023/12/08 07:42:37;;;;;;;9.87;6.50;;;5.00;99.90;;;4.75;66.18;95095.16;5060347;28;20495;-60
2023/12/08 07:45:06;;;;;;;9.57;6.83;;;5.00;99.90;;;4.74;65.85;95103.09;5060372;28;20520;-61
2023/12/08 07:47:33;;;;;;;14.10;8.23;;;5.00;99.90;;;4.72;66.07;95102.34;5061331;28;20532;-60
2023/12/08 07:50:00;;;;;;;36.43;21.50;;;5.00;99.90;;;4.70;66.27;95097.25;5062435;28;20549;-63
2023/12/08 07:52:31;;;;;;;11.87;6.83;;;4.90;99.90;;;4.66;64.78;95095.75;5056371;28;21015;-61
2023/12/08 07:54:58;;;;;;;12.37;7.37;;;4.90;99.90;;;4.60;65.13;95093.53;5061025;28;21099;-61
2023/12/08 07:57:26;;;;;;;10.60;9.47;;;4.90;99.90;;;4.56;65.87;95092.91;5062403;28;20473;-60
2023/12/08 07:59:53;;;;;;;13.23;9.10;;;4.80;99.90;;;4.56;65.92;95102.50;5060239;28;20456;-61
2023/12/08 08:02:20;;;;;;;9.90;7.10;;;4.80;99.90;;;4.57;66.05;95099.81;5059397;28;20569;-63
2023/12/08 08:04:47;;;;;;;9.13;7.20;;;4.80;99.90;;;4.58;65.78;95091.03;5062380;28;20450;-61
2023/12/08 08:07:15;;;;;;;8.70;7.23;;;4.80;99.90;;;4.58;66.10;95093.66;5059829;28;20479;-63
2023/12/08 08:09:43;;;;;;;17.30;8.40;;;4.80;99.90;;;4.60;66.18;95091.78;5060618;28;20498;-60
2023/12/08 08:12:11;;;;;;;11.53;7.10;;;4.90;99.90;;;4.63;65.34;95094.22;5062046;28;20900;-59
2023/12/08 08:14:38;;;;;;;10.77;7.20;;;4.90;99.90;;;4.66;65.85;95093.16;5060045;28;20456;-63
2023/12/08 08:17:06;;;;;;;9.93;7.53;;;4.90;99.90;;;4.69;65.66;95089.53;5060191;28;20559;-62
2023/12/08 08:19:33;;;;;;;11.93;6.67;;;4.90;99.90;;;4.70;65.43;95084.22;5061569;28;20971;-59
2023/12/08 08:22:01;;;;;;;10.70;6.07;;;4.90;99.90;;;4.72;65.60;95086.72;5060152;28;20541;-60
2023/12/08 08:24:28;;;;;;;13.93;6.47;;;5.00;99.90;;;4.74;65.45;95083.09;5060181;28;21021;-63
2023/12/08 08:26:57;;;;;;;15.50;6.90;;;5.00;99.90;;;4.77;65.62;95072.47;5062001;28;20538;-60
2023/12/08 08:29:24;;;;;;;12.43;6.83;;;5.00;99.90;;;4.79;65.69;95072.38;5060608;28;20459;-61
2023/12/08 08:31:52;;;;;;;10.37;6.93;;;5.00;99.90;;;4.81;65.56;95070.50;5062933;28;20525;-60
2023/12/08 08:34:20;;;;;;;8.90;6.50;;;5.10;99.90;;;4.83;65.24;95069.47;5058278;28;20472;-59
2023/12/08 08:36:47;;;;;;;15.43;6.80;;;5.10;99.90;;;4.85;65.09;95065.00;5060744;28;20467;-62
2023/12/08 08:39:14;;;;;;;10.20;6.50;;;5.10;99.90;;;4.86;65.25;95063.22;5060859;28;20516;-61
2023/12/08 08:41:44;;;;;;;9.37;5.97;;;5.10;99.90;;;4.89;65.43;95068.22;5058493;28;20495;-59
2023/12/08 08:44:12;;;;;;;6.07;5.07;;;5.10;99.90;;;4.90;64.86;95059.47;5060780;28;20454;-61
2023/12/08 08:46:41;;;;;;;5.17;4.67;;;5.10;99.90;;;4.90;65.06;95059.47;5061689;28;21094;-63
2023/12/08 08:49:08;;;;;;;5.00;4.60;;;5.20;99.90;;;4.91;64.69;95055.94;5055138;28;20552;-62
2023/12/08 08:51:36;;;;;;;6.33;5.73;;;5.10;99.90;;;4.93;65.01;95058.44;5060015;28;20447;-61
2023/12/08 08:54:03;;;;;;;9.53;5.27;;;5.20;99.90;;;4.95;65.09;95052.19;5061290;28;20497;-60
2023/12/08 08:56:31;;;;;;;7.70;5.90;;;5.20;99.90;;;4.98;64.89;95051.16;5055192;28;20992;-60
2023/12/08 08:58:58;;;;;;;6.93;5.37;;;5.20;99.90;;;4.99;65.20;95048.44;5059835;28;20526;-60
2023/12/08 09:01:28;;;;;;;7.00;6.30;;;5.20;99.90;;;5.05;64.73;95041.16;5060621;28;20494;-61
2023/12/08 09:03:55;;;;;;;6.47;5.67;;;5.30;99.90;;;5.06;64.88;95043.66;5058441;28;20455;-62
2023/12/08 09:06:22;;;;;;;6.10;5.50;;;5.30;99.90;;;5.09;64.72;95045.22;5059793;28;20450;-59
2023/12/08 09:08:50;;;;;;;5.90;5.30;;;5.30;99.90;;;5.11;64.24;95043.34;5060911;28;20453;-60
2023/12/08 09:11:17;;;;;;;9.97;5.80;;;5.30;99.90;;;5.11;64.23;95032.91;5058528;28;20981;-62
2023/12/08 09:13:45;;;;;;;9.60;7.13;;;5.40;99.90;;;5.13;64.50;95038.88;5059799;28;20877;-60
2023/12/08 09:16:12;;;;;;;6.47;5.60;;;5.30;99.90;;;5.15;64.43;95031.78;5061217;28;20455;-63
2023/12/08 09:18:41;;;;;;;6.90;4.93;;;5.40;99.90;;;5.17;63.88;95030.75;5059160;28;20472;-62
2023/12/08 09:21:09;;;;;;;93.40;31.37;;;5.40;99.90;;;5.17;64.12;95030.75;5058968;28;20456;-59
2023/12/08 09:23:36;;;;;;;33.80;11.83;;;5.40;99.90;;;5.19;63.94;95022.81;5060689;28;21064;-59
2023/12/08 09:26:03;;;;;;;14.13;6.57;;;5.40;99.90;;;5.21;63.97;95026.97;5059134;28;20456;-62
2023/12/08 09:28:31;;;;;;;9.87;5.83;;;5.40;99.90;;;5.22;63.90;95022.63;5059197;28;20472;-60
2023/12/08 09:31:00;;;;;;;6.00;5.20;;;5.50;99.90;;;5.24;63.79;95020.72;5060153;28;20455;-61
2023/12/08 09:33:28;;;;;;;8.57;6.00;;;5.50;99.90;;;5.26;63.63;95023.25;5060495;28;20977;-61
2023/12/08 09:35:58;;;;;;;6.87;5.33;;;5.50;99.90;;;5.28;63.75;95021.34;5058713;28;20460;-60
2023/12/08 09:38:25;;;;;;;5.80;5.10;;;5.50;99.90;;;5.30;63.52;95022.06;5054383;28;20574;-60
2023/12/08 09:40:52;;;;;;;5.30;4.80;;;5.50;99.90;;;5.28;63.65;95024.78;5059204;28;20767;-61
2023/12/08 09:43:23;;;;;;;5.23;4.80;;;5.50;99.90;;;5.27;63.18;95014.50;5060047;28;20522;-62
2023/12/08 09:45:50;;;;;;;7.67;5.97;;;5.50;99.90;;;5.29;63.82;95016.03;5055130;28;20901;-60
2023/12/08 09:48:17;;;;;;;7.67;5.50;;;5.50;99.90;;;5.30;63.41;95009.03;5059175;28;20467;-63
2023/12/08 09:50:45;;;;;;;8.33;6.10;;;5.50;99.90;;;5.31;63.10;95015.94;5060481;28;20479;-61
2023/12/08 09:53:14;;;;;;;6.40;5.83;;;5.50;99.90;;;5.33;63.92;95006.22;5058511;28;20487;-63
2023/12/08 09:55:41;;;;;;;6.57;5.50;;;5.60;99.90;;;5.35;63.79;95002.56;5058804;28;20451;-60
2023/12/08 09:58:09;;;;;;;8.10;5.43;;;5.60;99.90;;;5.40;63.50;95004.88;5060907;28;20486;-62
2023/12/08 10:00:37;;;;;;;5.67;5.17;;;5.60;99.90;;;5.43;63.54;94999.44;5058361;28;20452;-59
2023/12/08 10:03:04;;;;;;;5.20;4.70;;;5.70;99.90;;;5.47;63.75;94987.88;5057382;28;20523;-62
2023/12/08 10:05:32;;;;;;;8.37;6.10;;;5.70;99.90;;;5.50;63.23;94986.81;5060312;28;20459;-62
2023/12/08 10:07:59;;;;;;;10.30;6.50;;;5.70;99.90;;;5.52;62.89;94979.72;5058233;28;20583;-62
2023/12/08 10:10:28;;;;;;;8.27;5.93;;;5.70;99.90;;;5.54;63.04;94975.22;5058208;28;20956;-62
2023/12/08 10:12:55;;;;;;;9.33;7.23;;;5.80;99.90;;;5.57;63.27;94975.00;5060340;28;20593;-61
2023/12/08 10:15:22;;;;;;;7.20;6.30;;;5.80;99.90;;;5.59;63.03;94967.91;5058765;28;20447;-60
2023/12/08 10:17:51;;;;;;;8.37;5.70;;;5.80;99.90;;;5.60;62.67;94966.16;5058811;28;20479;-62
2023/12/08 10:20:19;;;;;;;7.10;5.70;;;5.80;99.90;;;5.58;62.20;94971.47;5060256;28;20455;-60
2023/12/08 10:22:50;;;;;;;5.87;5.27;;;5.80;99.90;;;5.57;62.33;94969.78;5058731;28;20526;-63
2023/12/08 10:25:18;;;;;;;6.47;5.83;;;5.80;99.90;;;5.57;62.04;94967.19;5057345;28;20864;-60
2023/12/08 10:27:50;;;;;;;8.60;6.43;;;5.80;99.90;;;5.57;62.73;94967.19;5054770;28;20471;-61
2023/12/08 10:30:17;;;;;;;10.90;9.20;;;5.80;99.90;;;5.57;62.39;94969.78;5058466;28;20536;-61
2023/12/08 10:32:45;;;;;;;9.30;7.20;;;5.80;99.90;;;5.56;62.54;94962.91;5059684;28;20482;-60
2023/12/08 10:35:12;;;;;;;9.97;7.30;;;5.80;99.90;;;5.57;62.55;94960.19;5058974;28;20455;-62